sensor_id;sensor_type;location;lat;lon;timestamp;P1;durP1;ratioP1;P2;durP2;ratioP2
13981;SDS011;7065;50.880;5.502;2023-07-20T00:02:24;9.02;;;7.32;;
13981;SDS011;7065;50.880;5.502;2023-07-20T00:04:49;9.27;;;6.55;;
13981;SDS011;7065;50.880;5.502;2023-07-20T00:07:15;10.75;;;7.30;;
13981;SDS011;7065;50.880;5.502;2023-07-20T00:09:41;9.02;;;6.68;;
13981;SDS011;7065;50.880;5.502;2023-07-20T00:12:07;9.57;;;6.90;;
13981;SDS011;7065;50.880;5.502;2023-07-20T00:14:33;8.85;;;7.38;;
13981;SDS011;7065;50.880;5.502;2023-07-20T00:16:59;12.82;;;7.88;;
13981;SDS011;7065;50.880;5.502;2023-07-20T00:19:25;10.35;;;7.40;;
13981;SDS011;7065;50.880;5.502;2023-07-20T00:21:52;8.48;;;6.90;;
13981;SDS011;7065;50.880;5.502;2023-07-20T00:24:18;9.93;;;6.75;;
13981;SDS011;7065;50.880;5.502;2023-07-20T00:26:44;8.90;;;7.43;;
13981;SDS011;7065;50.880;5.502;2023-07-20T00:29:10;10.65;;;7.18;;
13981;SDS011;7065;50.880;5.502;2023-07-20T00:31:36;8.95;;;6.57;;
13981;SDS011;7065;50.880;5.502;2023-07-20T00:34:05;9.95;;;6.68;;
13981;SDS011;7065;50.880;5.502;2023-07-20T00:36:32;10.63;;;6.07;;
13981;SDS011;7065;50.880;5.502;2023-07-20T00:38:58;8.50;;;6.32;;
13981;SDS011;7065;50.880;5.502;2023-07-20T00:41:23;10.18;;;6.80;;
13981;SDS011;7065;50.880;5.502;2023-07-20T00:43:49;8.20;;;5.82;;
13981;SDS011;7065;50.880;5.502;2023-07-20T00:46:15;11.43;;;6.00;;
13981;SDS011;7065;50.880;5.502;2023-07-20T00:48:41;8.38;;;6.00;;
13981;SDS011;7065;50.880;5.502;2023-07-20T00:51:07;8.07;;;5.78;;
13981;SDS011;7065;50.880;5.502;2023-07-20T00:53:34;6.53;;;5.45;;
13981;SDS011;7065;50.880;5.502;2023-07-20T00:56:00;8.82;;;6.15;;
13981;SDS011;7065;50.880;5.502;2023-07-20T00:58:26;11.43;;;5.40;;
13981;SDS011;7065;50.880;5.502;2023-07-20T01:00:53;9.02;;;5.07;;
13981;SDS011;7065;50.880;5.502;2023-07-20T01:03:18;5.80;;;5.05;;
13981;SDS011;7065;50.880;5.502;2023-07-20T01:06:29;6.85;;;4.35;;
13981;SDS011;7065;50.880;5.502;2023-07-20T01:08:36;9.07;;;5.50;;
13981;SDS011;7065;50.880;5.502;2023-07-20T01:11:15;8.50;;;4.90;;
13981;SDS011;7065;50.880;5.502;2023-07-20T01:13:47;6.40;;;4.65;;
13981;SDS011;7065;50.880;5.502;2023-07-20T01:16:13;6.97;;;5.07;;
13981;SDS011;7065;50.880;5.502;2023-07-20T01:18:39;9.27;;;4.88;;
13981;SDS011;7065;50.880;5.502;2023-07-20T01:21:06;6.40;;;4.68;;
13981;SDS011;7065;50.880;5.502;2023-07-20T01:31:54;6.05;;;4.55;;
13981;SDS011;7065;50.880;5.502;2023-07-20T01:34:22;5.85;;;4.82;;
13981;SDS011;7065;50.880;5.502;2023-07-20T01:36:49;6.32;;;5.10;;
13981;SDS011;7065;50.880;5.502;2023-07-20T01:39:17;9.35;;;4.80;;
13981;SDS011;7065;50.880;5.502;2023-07-20T01:41:45;6.55;;;5.05;;
13981;SDS011;7065;50.880;5.502;2023-07-20T01:44:12;9.25;;;5.38;;
13981;SDS011;7065;50.880;5.502;2023-07-20T01:46:38;11.13;;;5.00;;
13981;SDS011;7065;50.880;5.502;2023-07-20T01:49:03;10.65;;;5.22;;
13981;SDS011;7065;50.880;5.502;2023-07-20T01:51:29;6.88;;;4.88;;
13981;SDS011;7065;50.880;5.502;2023-07-20T01:53:55;6.75;;;4.47;;
13981;SDS011;7065;50.880;5.502;2023-07-20T01:56:20;5.28;;;4.25;;
13981;SDS011;7065;50.880;5.502;2023-07-20T01:58:46;9.32;;;4.95;;
13981;SDS011;7065;50.880;5.502;2023-07-20T02:01:12;6.97;;;4.88;;
13981;SDS011;7065;50.880;5.502;2023-07-20T02:03:37;7.50;;;5.10;;
13981;SDS011;7065;50.880;5.502;2023-07-20T02:06:03;7.70;;;4.80;;
13981;SDS011;7065;50.880;5.502;2023-07-20T02:08:29;10.05;;;4.85;;
13981;SDS011;7065;50.880;5.502;2023-07-20T02:10:54;7.60;;;4.57;;
13981;SDS011;7065;50.880;5.502;2023-07-20T02:13:20;8.73;;;4.80;;
13981;SDS011;7065;50.880;5.502;2023-07-20T02:15:46;11.88;;;4.68;;
13981;SDS011;7065;50.880;5.502;2023-07-20T02:18:14;9.32;;;4.50;;
13981;SDS011;7065;50.880;5.502;2023-07-20T02:20:40;6.25;;;4.93;;
13981;SDS011;7065;50.880;5.502;2023-07-20T02:23:07;7.10;;;4.93;;
13981;SDS011;7065;50.880;5.502;2023-07-20T02:25:32;8.52;;;5.05;;
13981;SDS011;7065;50.880;5.502;2023-07-20T02:27:58;8.25;;;5.30;;
13981;SDS011;7065;50.880;5.502;2023-07-20T02:30:24;8.63;;;5.20;;
13981;SDS011;7065;50.880;5.502;2023-07-20T02:32:49;12.52;;;5.32;;
13981;SDS011;7065;50.880;5.502;2023-07-20T02:35:16;9.52;;;5.50;;
13981;SDS011;7065;50.880;5.502;2023-07-20T02:37:41;10.27;;;5.45;;
13981;SDS011;7065;50.880;5.502;2023-07-20T02:40:07;10.23;;;5.65;;
13981;SDS011;7065;50.880;5.502;2023-07-20T02:42:34;13.82;;;6.13;;
13981;SDS011;7065;50.880;5.502;2023-07-20T02:45:01;9.45;;;5.80;;
13981;SDS011;7065;50.880;5.502;2023-07-20T02:47:30;7.38;;;5.35;;
13981;SDS011;7065;50.880;5.502;2023-07-20T02:49:56;13.00;;;6.57;;
13981;SDS011;7065;50.880;5.502;2023-07-20T02:52:22;15.05;;;6.47;;
13981;SDS011;7065;50.880;5.502;2023-07-20T02:54:49;10.52;;;6.28;;
13981;SDS011;7065;50.880;5.502;2023-07-20T02:57:14;11.98;;;6.22;;
13981;SDS011;7065;50.880;5.502;2023-07-20T02:59:40;10.73;;;6.05;;
13981;SDS011;7065;50.880;5.502;2023-07-20T03:02:06;11.85;;;6.60;;
13981;SDS011;7065;50.880;5.502;2023-07-20T03:04:34;13.38;;;6.65;;
13981;SDS011;7065;50.880;5.502;2023-07-20T03:07:02;8.05;;;6.57;;
13981;SDS011;7065;50.880;5.502;2023-07-20T03:09:29;12.10;;;6.07;;
13981;SDS011;7065;50.880;5.502;2023-07-20T03:11:54;14.15;;;6.85;;
13981;SDS011;7065;50.880;5.502;2023-07-20T03:14:20;12.98;;;6.80;;
13981;SDS011;7065;50.880;5.502;2023-07-20T03:16:46;8.18;;;6.13;;
13981;SDS011;7065;50.880;5.502;2023-07-20T03:19:12;15.27;;;7.05;;
13981;SDS011;7065;50.880;5.502;2023-07-20T03:21:38;11.45;;;6.93;;
13981;SDS011;7065;50.880;5.502;2023-07-20T03:24:06;13.70;;;6.45;;
13981;SDS011;7065;50.880;5.502;2023-07-20T03:26:33;11.40;;;6.70;;
13981;SDS011;7065;50.880;5.502;2023-07-20T03:28:59;12.85;;;6.90;;
13981;SDS011;7065;50.880;5.502;2023-07-20T03:31:25;12.32;;;6.70;;
13981;SDS011;7065;50.880;5.502;2023-07-20T03:33:51;13.05;;;6.80;;
13981;SDS011;7065;50.880;5.502;2023-07-20T03:36:17;9.60;;;6.68;;
13981;SDS011;7065;50.880;5.502;2023-07-20T03:38:43;10.63;;;6.38;;
13981;SDS011;7065;50.880;5.502;2023-07-20T03:41:08;13.93;;;6.82;;
13981;SDS011;7065;50.880;5.502;2023-07-20T03:43:34;12.32;;;6.57;;
13981;SDS011;7065;50.880;5.502;2023-07-20T03:46:00;9.85;;;6.60;;
13981;SDS011;7065;50.880;5.502;2023-07-20T03:48:25;11.55;;;6.35;;
13981;SDS011;7065;50.880;5.502;2023-07-20T03:50:52;13.13;;;6.72;;
13981;SDS011;7065;50.880;5.502;2023-07-20T03:53:19;13.45;;;6.82;;
13981;SDS011;7065;50.880;5.502;2023-07-20T03:55:45;10.75;;;5.35;;
13981;SDS011;7065;50.880;5.502;2023-07-20T03:58:12;10.68;;;6.13;;
13981;SDS011;7065;50.880;5.502;2023-07-20T04:00:38;11.77;;;6.55;;
13981;SDS011;7065;50.880;5.502;2023-07-20T04:03:05;12.23;;;6.82;;
13981;SDS011;7065;50.880;5.502;2023-07-20T04:05:31;8.45;;;5.82;;
13981;SDS011;7065;50.880;5.502;2023-07-20T04:07:56;9.57;;;6.75;;
13981;SDS011;7065;50.880;5.502;2023-07-20T04:10:22;13.13;;;7.10;;
13981;SDS011;7065;50.880;5.502;2023-07-20T04:12:48;12.32;;;6.88;;
13981;SDS011;7065;50.880;5.502;2023-07-20T04:15:13;9.10;;;5.05;;
13981;SDS011;7065;50.880;5.502;2023-07-20T04:17:39;13.05;;;6.65;;
13981;SDS011;7065;50.880;5.502;2023-07-20T04:20:06;11.55;;;7.53;;
13981;SDS011;7065;50.880;5.502;2023-07-20T04:22:32;11.73;;;7.25;;
13981;SDS011;7065;50.880;5.502;2023-07-20T04:24:58;13.15;;;6.50;;
13981;SDS011;7065;50.880;5.502;2023-07-20T04:27:24;13.02;;;7.28;;
13981;SDS011;7065;50.880;5.502;2023-07-20T04:29:50;12.45;;;7.70;;
13981;SDS011;7065;50.880;5.502;2023-07-20T04:32:15;15.00;;;7.68;;
13981;SDS011;7065;50.880;5.502;2023-07-20T04:34:42;13.23;;;8.68;;
13981;SDS011;7065;50.880;5.502;2023-07-20T04:37:08;10.40;;;7.95;;
13981;SDS011;7065;50.880;5.502;2023-07-20T04:39:33;13.95;;;8.48;;
13981;SDS011;7065;50.880;5.502;2023-07-20T04:41:59;17.48;;;9.05;;
13981;SDS011;7065;50.880;5.502;2023-07-20T04:44:25;15.07;;;9.68;;
13981;SDS011;7065;50.880;5.502;2023-07-20T04:46:50;11.77;;;9.45;;
13981;SDS011;7065;50.880;5.502;2023-07-20T04:49:16;16.08;;;10.18;;
13981;SDS011;7065;50.880;5.502;2023-07-20T04:51:42;19.65;;;10.75;;
13981;SDS011;7065;50.880;5.502;2023-07-20T04:54:07;13.88;;;9.25;;
13981;SDS011;7065;50.880;5.502;2023-07-20T04:56:33;19.52;;;11.55;;
13981;SDS011;7065;50.880;5.502;2023-07-20T04:58:59;19.23;;;11.52;;
13981;SDS011;7065;50.880;5.502;2023-07-20T05:01:25;16.50;;;10.68;;
13981;SDS011;7065;50.880;5.502;2023-07-20T05:03:51;17.25;;;11.63;;
13981;SDS011;7065;50.880;5.502;2023-07-20T05:06:18;19.33;;;12.23;;
13981;SDS011;7065;50.880;5.502;2023-07-20T05:08:44;18.73;;;12.52;;
13981;SDS011;7065;50.880;5.502;2023-07-20T05:11:10;17.50;;;11.88;;
13981;SDS011;7065;50.880;5.502;2023-07-20T05:13:36;22.42;;;12.68;;
13981;SDS011;7065;50.880;5.502;2023-07-20T05:16:02;25.58;;;17.35;;
13981;SDS011;7065;50.880;5.502;2023-07-20T05:18:27;23.63;;;14.77;;
13981;SDS011;7065;50.880;5.502;2023-07-20T05:20:53;22.60;;;14.73;;
13981;SDS011;7065;50.880;5.502;2023-07-20T05:23:20;23.38;;;15.38;;
13981;SDS011;7065;50.880;5.502;2023-07-20T05:25:46;22.02;;;15.43;;
13981;SDS011;7065;50.880;5.502;2023-07-20T05:28:12;25.30;;;15.80;;
13981;SDS011;7065;50.880;5.502;2023-07-20T05:30:39;21.23;;;15.20;;
13981;SDS011;7065;50.880;5.502;2023-07-20T05:33:05;24.00;;;15.65;;
13981;SDS011;7065;50.880;5.502;2023-07-20T05:35:30;20.23;;;15.40;;
13981;SDS011;7065;50.880;5.502;2023-07-20T05:37:56;21.58;;;16.83;;
13981;SDS011;7065;50.880;5.502;2023-07-20T05:40:22;25.05;;;16.42;;
13981;SDS011;7065;50.880;5.502;2023-07-20T05:42:48;20.40;;;15.05;;
13981;SDS011;7065;50.880;5.502;2023-07-20T05:45:16;23.38;;;18.33;;
13981;SDS011;7065;50.880;5.502;2023-07-20T05:47:42;25.48;;;19.45;;
13981;SDS011;7065;50.880;5.502;2023-07-20T05:50:08;25.02;;;18.08;;
13981;SDS011;7065;50.880;5.502;2023-07-20T05:52:35;24.88;;;18.58;;
13981;SDS011;7065;50.880;5.502;2023-07-20T05:55:00;22.88;;;18.27;;
13981;SDS011;7065;50.880;5.502;2023-07-20T05:57:26;26.13;;;19.52;;
13981;SDS011;7065;50.880;5.502;2023-07-20T05:59:52;25.88;;;19.58;;
13981;SDS011;7065;50.880;5.502;2023-07-20T06:02:18;26.55;;;19.52;;
13981;SDS011;7065;50.880;5.502;2023-07-20T06:04:44;20.75;;;18.13;;
13981;SDS011;7065;50.880;5.502;2023-07-20T06:07:10;19.77;;;16.13;;
13981;SDS011;7065;50.880;5.502;2023-07-20T06:09:36;24.05;;;19.42;;
13981;SDS011;7065;50.880;5.502;2023-07-20T06:12:02;20.35;;;16.90;;
13981;SDS011;7065;50.880;5.502;2023-07-20T06:14:27;21.05;;;18.63;;
13981;SDS011;7065;50.880;5.502;2023-07-20T06:16:53;22.38;;;17.10;;
13981;SDS011;7065;50.880;5.502;2023-07-20T06:19:19;22.02;;;18.42;;
13981;SDS011;7065;50.880;5.502;2023-07-20T06:21:44;22.33;;;18.13;;
13981;SDS011;7065;50.880;5.502;2023-07-20T06:24:10;18.38;;;16.33;;
13981;SDS011;7065;50.880;5.502;2023-07-20T06:26:36;17.50;;;15.65;;
13981;SDS011;7065;50.880;5.502;2023-07-20T06:29:06;18.77;;;15.38;;
13981;SDS011;7065;50.880;5.502;2023-07-20T06:31:34;16.27;;;14.55;;
13981;SDS011;7065;50.880;5.502;2023-07-20T06:34:00;17.88;;;14.70;;
13981;SDS011;7065;50.880;5.502;2023-07-20T06:36:26;16.52;;;14.77;;
13981;SDS011;7065;50.880;5.502;2023-07-20T06:38:52;16.73;;;14.75;;
13981;SDS011;7065;50.880;5.502;2023-07-20T06:41:19;16.85;;;14.75;;
13981;SDS011;7065;50.880;5.502;2023-07-20T06:43:44;16.25;;;14.35;;
13981;SDS011;7065;50.880;5.502;2023-07-20T06:46:10;13.50;;;12.10;;
13981;SDS011;7065;50.880;5.502;2023-07-20T06:48:36;13.88;;;12.30;;
13981;SDS011;7065;50.880;5.502;2023-07-20T06:51:02;14.35;;;12.23;;
13981;SDS011;7065;50.880;5.502;2023-07-20T06:53:29;14.30;;;12.73;;
13981;SDS011;7065;50.880;5.502;2023-07-20T06:55:55;13.15;;;11.75;;
13981;SDS011;7065;50.880;5.502;2023-07-20T06:58:24;12.27;;;11.05;;
13981;SDS011;7065;50.880;5.502;2023-07-20T07:00:50;11.02;;;10.02;;
13981;SDS011;7065;50.880;5.502;2023-07-20T07:03:15;11.55;;;10.43;;
13981;SDS011;7065;50.880;5.502;2023-07-20T07:05:41;13.38;;;10.68;;
13981;SDS011;7065;50.880;5.502;2023-07-20T07:08:08;11.20;;;10.15;;
13981;SDS011;7065;50.880;5.502;2023-07-20T07:10:35;11.85;;;10.05;;
13981;SDS011;7065;50.880;5.502;2023-07-20T07:13:01;12.00;;;10.45;;
13981;SDS011;7065;50.880;5.502;2023-07-20T07:15:27;10.98;;;9.55;;
13981;SDS011;7065;50.880;5.502;2023-07-20T07:17:53;11.70;;;10.50;;
13981;SDS011;7065;50.880;5.502;2023-07-20T07:20:19;11.95;;;10.75;;
13981;SDS011;7065;50.880;5.502;2023-07-20T07:22:44;10.95;;;9.82;;
13981;SDS011;7065;50.880;5.502;2023-07-20T07:25:11;10.45;;;9.55;;
13981;SDS011;7065;50.880;5.502;2023-07-20T07:27:37;10.25;;;8.68;;
13981;SDS011;7065;50.880;5.502;2023-07-20T07:30:03;9.02;;;8.20;;
13981;SDS011;7065;50.880;5.502;2023-07-20T07:32:30;10.20;;;8.98;;
13981;SDS011;7065;50.880;5.502;2023-07-20T07:34:56;10.57;;;9.48;;
13981;SDS011;7065;50.880;5.502;2023-07-20T07:37:23;9.45;;;8.48;;
13981;SDS011;7065;50.880;5.502;2023-07-20T07:39:49;10.23;;;9.20;;
13981;SDS011;7065;50.880;5.502;2023-07-20T07:42:15;10.60;;;9.40;;
13981;SDS011;7065;50.880;5.502;2023-07-20T07:44:40;9.57;;;8.73;;
13981;SDS011;7065;50.880;5.502;2023-07-20T07:47:06;9.27;;;8.38;;
13981;SDS011;7065;50.880;5.502;2023-07-20T07:49:32;9.63;;;8.73;;
13981;SDS011;7065;50.880;5.502;2023-07-20T07:51:58;11.23;;;9.18;;
13981;SDS011;7065;50.880;5.502;2023-07-20T07:54:24;10.57;;;9.55;;
13981;SDS011;7065;50.880;5.502;2023-07-20T07:56:50;9.27;;;8.27;;
13981;SDS011;7065;50.880;5.502;2023-07-20T07:59:16;9.32;;;8.38;;
13981;SDS011;7065;50.880;5.502;2023-07-20T08:01:42;8.52;;;7.75;;
13981;SDS011;7065;50.880;5.502;2023-07-20T08:04:07;8.93;;;8.13;;
13981;SDS011;7065;50.880;5.502;2023-07-20T08:06:33;9.20;;;8.40;;
13981;SDS011;7065;50.880;5.502;2023-07-20T08:08:59;8.63;;;7.72;;
13981;SDS011;7065;50.880;5.502;2023-07-20T08:11:25;9.20;;;8.35;;
13981;SDS011;7065;50.880;5.502;2023-07-20T08:13:50;9.80;;;8.90;;
13981;SDS011;7065;50.880;5.502;2023-07-20T08:16:16;10.45;;;8.32;;
13981;SDS011;7065;50.880;5.502;2023-07-20T08:18:43;8.32;;;7.53;;
13981;SDS011;7065;50.880;5.502;2023-07-20T08:21:10;8.50;;;7.60;;
13981;SDS011;7065;50.880;5.502;2023-07-20T08:23:36;9.57;;;8.68;;
13981;SDS011;7065;50.880;5.502;2023-07-20T08:26:01;10.45;;;9.07;;
13981;SDS011;7065;50.880;5.502;2023-07-20T08:28:27;9.10;;;8.30;;
13981;SDS011;7065;50.880;5.502;2023-07-20T08:30:54;8.43;;;6.63;;
13981;SDS011;7065;50.880;5.502;2023-07-20T08:33:19;8.00;;;7.25;;
13981;SDS011;7065;50.880;5.502;2023-07-20T08:35:46;8.63;;;7.78;;
13981;SDS011;7065;50.880;5.502;2023-07-20T08:38:12;8.68;;;7.88;;
13981;SDS011;7065;50.880;5.502;2023-07-20T08:40:42;7.55;;;6.85;;
13981;SDS011;7065;50.880;5.502;2023-07-20T08:43:11;6.45;;;5.85;;
13981;SDS011;7065;50.880;5.502;2023-07-20T08:45:39;5.28;;;4.78;;
13981;SDS011;7065;50.880;5.502;2023-07-20T08:48:06;6.57;;;5.97;;
13981;SDS011;7065;50.880;5.502;2023-07-20T08:50:33;6.88;;;6.38;;
13981;SDS011;7065;50.880;5.502;2023-07-20T08:53:00;6.18;;;5.68;;
13981;SDS011;7065;50.880;5.502;2023-07-20T08:55:26;7.97;;;7.28;;
13981;SDS011;7065;50.880;5.502;2023-07-20T08:57:55;7.10;;;6.50;;
13981;SDS011;7065;50.880;5.502;2023-07-20T09:00:22;7.93;;;7.05;;
13981;SDS011;7065;50.880;5.502;2023-07-20T09:02:50;6.82;;;6.30;;
13981;SDS011;7065;50.880;5.502;2023-07-20T09:05:17;5.88;;;5.38;;
13981;SDS011;7065;50.880;5.502;2023-07-20T09:07:46;5.80;;;5.30;;
13981;SDS011;7065;50.880;5.502;2023-07-20T09:10:12;4.50;;;4.10;;
13981;SDS011;7065;50.880;5.502;2023-07-20T09:12:38;5.65;;;5.05;;
13981;SDS011;7065;50.880;5.502;2023-07-20T09:15:06;7.63;;;6.88;;
13981;SDS011;7065;50.880;5.502;2023-07-20T09:17:32;7.13;;;6.47;;
13981;SDS011;7065;50.880;5.502;2023-07-20T09:19:59;7.47;;;6.78;;
13981;SDS011;7065;50.880;5.502;2023-07-20T09:22:32;6.95;;;6.35;;
13981;SDS011;7065;50.880;5.502;2023-07-20T09:24:58;5.78;;;5.22;;
13981;SDS011;7065;50.880;5.502;2023-07-20T09:27:43;4.78;;;4.38;;
13981;SDS011;7065;50.880;5.502;2023-07-20T09:30:10;2.83;;;2.63;;
13981;SDS011;7065;50.880;5.502;2023-07-20T09:32:40;3.42;;;2.92;;
13981;SDS011;7065;50.880;5.502;2023-07-20T09:35:13;3.10;;;2.80;;
13981;SDS011;7065;50.880;5.502;2023-07-20T09:37:41;3.53;;;3.22;;
13981;SDS011;7065;50.880;5.502;2023-07-20T09:40:29;3.15;;;2.63;;
13981;SDS011;7065;50.880;5.502;2023-07-20T09:42:55;4.07;;;3.78;;
13981;SDS011;7065;50.880;5.502;2023-07-20T09:45:41;3.25;;;2.85;;
13981;SDS011;7065;50.880;5.502;2023-07-20T09:48:07;3.72;;;3.50;;
13981;SDS011;7065;50.880;5.502;2023-07-20T09:50:42;4.68;;;4.28;;
13981;SDS011;7065;50.880;5.502;2023-07-20T09:53:13;2.33;;;2.13;;
13981;SDS011;7065;50.880;5.502;2023-07-20T09:55:40;2.65;;;2.15;;
13981;SDS011;7065;50.880;5.502;2023-07-20T09:58:08;2.78;;;2.58;;
13981;SDS011;7065;50.880;5.502;2023-07-20T10:00:35;2.60;;;2.40;;
13981;SDS011;7065;50.880;5.502;2023-07-20T10:03:03;2.60;;;2.17;;
13981;SDS011;7065;50.880;5.502;2023-07-20T10:05:32;2.20;;;2.00;;
13981;SDS011;7065;50.880;5.502;2023-07-20T10:08:00;3.38;;;2.20;;
13981;SDS011;7065;50.880;5.502;2023-07-20T10:10:28;3.30;;;3.03;;
13981;SDS011;7065;50.880;5.502;2023-07-20T10:12:55;5.30;;;3.33;;
13981;SDS011;7065;50.880;5.502;2023-07-20T10:15:32;2.78;;;2.58;;
13981;SDS011;7065;50.880;5.502;2023-07-20T10:18:09;2.00;;;1.90;;
13981;SDS011;7065;50.880;5.502;2023-07-20T10:20:39;2.08;;;1.73;;
13981;SDS011;7065;50.880;5.502;2023-07-20T10:23:08;2.88;;;2.05;;
13981;SDS011;7065;50.880;5.502;2023-07-20T10:25:35;2.53;;;2.42;;
13981;SDS011;7065;50.880;5.502;2023-07-20T10:28:04;3.13;;;2.78;;
13981;SDS011;7065;50.880;5.502;2023-07-20T10:30:31;2.83;;;2.58;;
13981;SDS011;7065;50.880;5.502;2023-07-20T10:32:58;2.63;;;2.40;;
13981;SDS011;7065;50.880;5.502;2023-07-20T10:35:28;2.42;;;2.20;;
13981;SDS011;7065;50.880;5.502;2023-07-20T10:37:54;3.65;;;2.72;;
13981;SDS011;7065;50.880;5.502;2023-07-20T10:40:33;2.67;;;1.83;;
13981;SDS011;7065;50.880;5.502;2023-07-20T10:43:01;3.78;;;2.05;;
13981;SDS011;7065;50.880;5.502;2023-07-20T10:45:33;3.10;;;2.35;;
13981;SDS011;7065;50.880;5.502;2023-07-20T10:48:15;3.13;;;2.17;;
13981;SDS011;7065;50.880;5.502;2023-07-20T10:50:44;2.17;;;2.08;;
13981;SDS011;7065;50.880;5.502;2023-07-20T10:53:12;4.20;;;1.95;;
13981;SDS011;7065;50.880;5.502;2023-07-20T10:55:40;3.25;;;2.00;;
13981;SDS011;7065;50.880;5.502;2023-07-20T10:58:10;3.45;;;2.45;;
13981;SDS011;7065;50.880;5.502;2023-07-20T11:00:54;2.58;;;2.38;;
13981;SDS011;7065;50.880;5.502;2023-07-20T11:03:32;2.47;;;2.28;;
13981;SDS011;7065;50.880;5.502;2023-07-20T11:05:59;2.83;;;2.08;;
13981;SDS011;7065;50.880;5.502;2023-07-20T11:11:38;2.78;;;2.00;;
13981;SDS011;7065;50.880;5.502;2023-07-20T11:14:05;2.33;;;2.13;;
13981;SDS011;7065;50.880;5.502;2023-07-20T11:16:33;4.00;;;2.08;;
13981;SDS011;7065;50.880;5.502;2023-07-20T11:19:01;2.60;;;2.30;;
13981;SDS011;7065;50.880;5.502;2023-07-20T11:21:27;3.10;;;2.30;;
13981;SDS011;7065;50.880;5.502;2023-07-20T11:23:53;2.80;;;2.05;;
13981;SDS011;7065;50.880;5.502;2023-07-20T11:26:20;2.90;;;1.92;;
13981;SDS011;7065;50.880;5.502;2023-07-20T11:28:49;3.50;;;1.95;;
13981;SDS011;7065;50.880;5.502;2023-07-20T11:31:16;2.42;;;2.22;;
13981;SDS011;7065;50.880;5.502;2023-07-20T11:33:45;2.38;;;2.15;;
13981;SDS011;7065;50.880;5.502;2023-07-20T11:36:11;2.42;;;1.60;;
13981;SDS011;7065;50.880;5.502;2023-07-20T11:38:39;1.95;;;1.77;;
13981;SDS011;7065;50.880;5.502;2023-07-20T11:41:08;2.17;;;1.95;;
13981;SDS011;7065;50.880;5.502;2023-07-20T11:43:34;2.53;;;1.90;;
13981;SDS011;7065;50.880;5.502;2023-07-20T11:46:03;1.73;;;1.63;;
13981;SDS011;7065;50.880;5.502;2023-07-20T11:48:30;2.88;;;1.77;;
13981;SDS011;7065;50.880;5.502;2023-07-20T11:50:56;1.75;;;1.63;;
13981;SDS011;7065;50.880;5.502;2023-07-20T11:53:21;2.22;;;2.03;;
13981;SDS011;7065;50.880;5.502;2023-07-20T11:55:49;2.17;;;1.23;;
13981;SDS011;7065;50.880;5.502;2023-07-20T11:58:15;2.85;;;1.50;;
13981;SDS011;7065;50.880;5.502;2023-07-20T12:00:42;5.70;;;1.58;;
13981;SDS011;7065;50.880;5.502;2023-07-20T12:03:09;1.85;;;1.42;;
13981;SDS011;7065;50.880;5.502;2023-07-20T12:05:37;1.83;;;1.27;;
13981;SDS011;7065;50.880;5.502;2023-07-20T12:08:03;1.50;;;1.40;;
13981;SDS011;7065;50.880;5.502;2023-07-20T12:10:29;2.30;;;1.25;;
13981;SDS011;7065;50.880;5.502;2023-07-20T12:13:00;1.50;;;1.40;;
13981;SDS011;7065;50.880;5.502;2023-07-20T12:15:28;1.83;;;1.45;;
13981;SDS011;7065;50.880;5.502;2023-07-20T12:18:00;1.45;;;1.35;;
13981;SDS011;7065;50.880;5.502;2023-07-20T12:23:05;1.90;;;1.45;;
13981;SDS011;7065;50.880;5.502;2023-07-20T12:25:41;1.40;;;1.30;;
13981;SDS011;7065;50.880;5.502;2023-07-20T12:28:11;1.92;;;1.40;;
13981;SDS011;7065;50.880;5.502;2023-07-20T12:30:42;3.70;;;1.30;;
13981;SDS011;7065;50.880;5.502;2023-07-20T12:33:09;1.80;;;1.38;;
13981;SDS011;7065;50.880;5.502;2023-07-20T12:35:36;2.00;;;1.13;;
13981;SDS011;7065;50.880;5.502;2023-07-20T12:38:04;2.70;;;1.20;;
13981;SDS011;7065;50.880;5.502;2023-07-20T12:40:31;1.98;;;1.33;;
13981;SDS011;7065;50.880;5.502;2023-07-20T12:42:57;1.73;;;1.40;;
13981;SDS011;7065;50.880;5.502;2023-07-20T12:45:22;2.70;;;1.13;;
13981;SDS011;7065;50.880;5.502;2023-07-20T12:47:48;1.27;;;1.17;;
13981;SDS011;7065;50.880;5.502;2023-07-20T12:50:14;1.75;;;1.27;;
13981;SDS011;7065;50.880;5.502;2023-07-20T12:52:40;1.65;;;0.90;;
13981;SDS011;7065;50.880;5.502;2023-07-20T12:55:06;1.52;;;1.27;;
13981;SDS011;7065;50.880;5.502;2023-07-20T12:57:37;5.28;;;1.35;;
13981;SDS011;7065;50.880;5.502;2023-07-20T13:00:03;1.25;;;1.13;;
13981;SDS011;7065;50.880;5.502;2023-07-20T13:02:32;0.85;;;0.82;;
13981;SDS011;7065;50.880;5.502;2023-07-20T13:04:58;2.05;;;1.17;;
13981;SDS011;7065;50.880;5.502;2023-07-20T13:07:30;1.15;;;0.95;;
13981;SDS011;7065;50.880;5.502;2023-07-20T13:09:57;1.10;;;1.00;;
13981;SDS011;7065;50.880;5.502;2023-07-20T13:12:25;2.08;;;1.08;;
13981;SDS011;7065;50.880;5.502;2023-07-20T13:14:55;1.20;;;0.93;;
13981;SDS011;7065;50.880;5.502;2023-07-20T13:17:21;0.80;;;0.80;;
13981;SDS011;7065;50.880;5.502;2023-07-20T13:19:47;1.35;;;1.20;;
13981;SDS011;7065;50.880;5.502;2023-07-20T13:22:13;1.40;;;1.20;;
13981;SDS011;7065;50.880;5.502;2023-07-20T13:24:44;1.48;;;1.27;;
13981;SDS011;7065;50.880;5.502;2023-07-20T13:27:12;1.10;;;1.10;;
13981;SDS011;7065;50.880;5.502;2023-07-20T13:29:37;1.90;;;1.10;;
13981;SDS011;7065;50.880;5.502;2023-07-20T13:32:03;2.20;;;1.20;;
13981;SDS011;7065;50.880;5.502;2023-07-20T13:34:31;1.23;;;1.13;;
13981;SDS011;7065;50.880;5.502;2023-07-20T13:36:57;1.30;;;1.20;;
13981;SDS011;7065;50.880;5.502;2023-07-20T13:39:22;1.38;;;1.08;;
13981;SDS011;7065;50.880;5.502;2023-07-20T13:41:49;1.27;;;1.17;;
13981;SDS011;7065;50.880;5.502;2023-07-20T13:44:15;0.85;;;0.75;;
13981;SDS011;7065;50.880;5.502;2023-07-20T13:46:40;1.70;;;1.10;;
13981;SDS011;7065;50.880;5.502;2023-07-20T13:49:06;1.38;;;0.90;;
13981;SDS011;7065;50.880;5.502;2023-07-20T13:51:32;1.08;;;0.98;;
13981;SDS011;7065;50.880;5.502;2023-07-20T13:53:57;1.30;;;1.20;;
13981;SDS011;7065;50.880;5.502;2023-07-20T13:56:24;1.05;;;1.00;;
13981;SDS011;7065;50.880;5.502;2023-07-20T13:58:50;3.10;;;1.20;;
13981;SDS011;7065;50.880;5.502;2023-07-20T14:01:16;1.42;;;1.13;;
13981;SDS011;7065;50.880;5.502;2023-07-20T14:03:42;1.65;;;1.10;;
13981;SDS011;7065;50.880;5.502;2023-07-20T14:06:08;1.60;;;1.30;;
13981;SDS011;7065;50.880;5.502;2023-07-20T14:08:34;1.90;;;1.20;;
13981;SDS011;7065;50.880;5.502;2023-07-20T14:11:00;1.20;;;1.10;;
13981;SDS011;7065;50.880;5.502;2023-07-20T14:13:26;1.48;;;1.25;;
13981;SDS011;7065;50.880;5.502;2023-07-20T14:15:51;1.00;;;0.95;;
13981;SDS011;7065;50.880;5.502;2023-07-20T14:18:17;1.45;;;0.90;;
13981;SDS011;7065;50.880;5.502;2023-07-20T14:20:42;1.10;;;1.00;;
13981;SDS011;7065;50.880;5.502;2023-07-20T14:23:09;1.02;;;0.80;;
13981;SDS011;7065;50.880;5.502;2023-07-20T14:25:35;1.00;;;1.00;;
13981;SDS011;7065;50.880;5.502;2023-07-20T14:28:01;1.10;;;1.00;;
13981;SDS011;7065;50.880;5.502;2023-07-20T14:30:26;1.90;;;1.30;;
13981;SDS011;7065;50.880;5.502;2023-07-20T14:32:52;2.10;;;1.20;;
13981;SDS011;7065;50.880;5.502;2023-07-20T14:35:18;3.00;;;1.48;;
13981;SDS011;7065;50.880;5.502;2023-07-20T14:37:44;2.25;;;1.13;;
13981;SDS011;7065;50.880;5.502;2023-07-20T14:40:12;1.88;;;1.15;;
13981;SDS011;7065;50.880;5.502;2023-07-20T14:42:38;1.50;;;1.30;;
13981;SDS011;7065;50.880;5.502;2023-07-20T14:45:04;1.50;;;1.30;;
13981;SDS011;7065;50.880;5.502;2023-07-20T14:47:30;1.30;;;1.17;;
13981;SDS011;7065;50.880;5.502;2023-07-20T14:50:00;1.58;;;1.48;;
13981;SDS011;7065;50.880;5.502;2023-07-20T14:52:27;2.15;;;1.00;;
13981;SDS011;7065;50.880;5.502;2023-07-20T14:54:54;1.50;;;1.13;;
13981;SDS011;7065;50.880;5.502;2023-07-20T14:57:20;2.85;;;1.30;;
13981;SDS011;7065;50.880;5.502;2023-07-20T14:59:48;2.25;;;1.10;;
13981;SDS011;7065;50.880;5.502;2023-07-20T15:02:14;2.45;;;1.17;;
13981;SDS011;7065;50.880;5.502;2023-07-20T15:04:50;1.77;;;0.95;;
13981;SDS011;7065;50.880;5.502;2023-07-20T15:07:17;1.20;;;1.10;;